createdAt,value
2023-05-23T00:00:19.815Z,16.50
2023-05-23T00:04:38.644Z,16.50
2023-05-23T00:08:57.442Z,16.50
2023-05-23T00:13:14.751Z,16.50
2023-05-23T00:17:34.291Z,16.60
2023-05-23T00:21:58.682Z,16.60
2023-05-23T00:26:18.222Z,16.70
2023-05-23T00:30:39.270Z,16.80
2023-05-23T00:34:59.187Z,16.80
2023-05-23T00:39:20.982Z,16.80
2023-05-23T00:43:39.622Z,16.90
2023-05-23T00:47:59.371Z,16.90
2023-05-23T00:52:20.407Z,16.90
2023-05-23T00:56:40.831Z,16.90
2023-05-23T01:00:58.176Z,17.00
2023-05-23T01:05:17.763Z,17.00
2023-05-23T01:09:38.805Z,17.10
2023-05-23T01:14:06.186Z,17.10
2023-05-23T01:18:31.656Z,17.20
2023-05-23T01:23:17.341Z,17.20
2023-05-23T01:27:50.489Z,17.20
2023-05-23T01:32:13.387Z,17.20
2023-05-23T01:36:36.224Z,17.20
2023-05-23T01:40:54.547Z,17.10
2023-05-23T01:45:14.288Z,17.10
2023-05-23T01:49:36.513Z,17.10
2023-05-23T01:53:55.639Z,17.10
2023-05-23T01:58:15.916Z,17.00
2023-05-23T02:02:35.457Z,17.00
2023-05-23T02:06:54.787Z,17.00
2023-05-23T02:11:12.834Z,16.90
2023-05-23T02:15:30.965Z,16.90
2023-05-23T02:19:50.414Z,16.90
2023-05-23T02:24:10.076Z,16.80
2023-05-23T02:28:28.167Z,16.80
2023-05-23T02:32:46.425Z,16.80
2023-05-23T02:37:06.072Z,16.80
2023-05-23T02:41:25.235Z,16.70
2023-05-23T02:45:43.756Z,16.70
2023-05-23T02:50:01.559Z,16.60
2023-05-23T02:54:21.745Z,16.60
2023-05-23T02:58:41.101Z,16.60
2023-05-23T03:02:59.120Z,16.60
2023-05-23T03:07:27.616Z,16.70
2023-05-23T03:11:48.630Z,16.70
2023-05-23T03:16:08.603Z,16.80
2023-05-23T03:20:26.898Z,16.90
2023-05-23T03:24:47.451Z,16.90
2023-05-23T03:29:07.252Z,17.00
2023-05-23T03:33:26.686Z,16.90
2023-05-23T03:37:44.983Z,16.90
2023-05-23T03:42:02.671Z,16.80
2023-05-23T03:46:22.258Z,16.80
2023-05-23T03:50:42.414Z,16.80
2023-05-23T03:55:03.412Z,16.90
2023-05-23T03:59:24.860Z,16.90
2023-05-23T04:03:43.792Z,16.90
2023-05-23T04:08:03.396Z,16.90
2023-05-23T04:12:22.122Z,17.00
2023-05-23T04:16:41.752Z,17.10
2023-05-23T04:21:02.062Z,17.20
2023-05-23T04:25:21.705Z,17.30
2023-05-23T04:29:58.266Z,17.30
2023-05-23T04:34:17.362Z,17.30
2023-05-23T04:38:41.137Z,17.30
2023-05-23T04:43:01.765Z,17.30
2023-05-23T04:47:44.968Z,17.30
2023-05-23T04:52:08.252Z,17.30
2023-05-23T04:56:34.073Z,17.30
2023-05-23T05:00:54.010Z,17.30
2023-05-23T05:05:12.266Z,17.50
2023-05-23T05:09:33.115Z,17.80
2023-05-23T05:13:55.543Z,18.20
2023-05-23T05:18:15.267Z,18.40
2023-05-23T05:22:33.808Z,18.80
2023-05-23T05:26:51.856Z,19.20
2023-05-23T05:31:15.322Z,19.80
2023-05-23T05:35:34.090Z,20.20
2023-05-23T05:39:55.358Z,20.30
2023-05-23T05:44:12.933Z,20.30
2023-05-23T05:48:32.602Z,20.20
2023-05-23T05:52:54.798Z,20.10
2023-05-23T05:57:13.170Z,19.80
2023-05-23T06:01:31.440Z,19.50
2023-05-23T06:05:50.952Z,19.20
2023-05-23T06:10:12.851Z,19.00
2023-05-23T06:14:31.600Z,18.80
2023-05-23T06:18:49.796Z,18.80
2023-05-23T06:23:09.575Z,18.80
2023-05-23T06:27:28.721Z,18.80
2023-05-23T06:31:47.285Z,18.80
2023-05-23T06:36:05.350Z,18.80
2023-05-23T06:40:24.657Z,18.90
2023-05-23T06:44:43.950Z,18.80
2023-05-23T06:49:13.783Z,18.80
2023-05-23T06:53:35.563Z,18.60
2023-05-23T06:57:55.010Z,18.50
2023-05-23T07:02:14.758Z,18.30
2023-05-23T07:06:32.962Z,18.20
2023-05-23T07:10:53.931Z,18.00
2023-05-23T07:15:22.624Z,17.90
2023-05-23T07:19:51.700Z,17.80
2023-05-23T07:24:09.666Z,17.70
2023-05-23T07:28:30.778Z,17.80
2023-05-23T07:32:53.816Z,17.80
2023-05-23T07:37:13.112Z,17.80
2023-05-23T07:41:34.008Z,17.90
2023-05-23T07:45:52.139Z,17.90
2023-05-23T07:50:12.249Z,18.00
2023-05-23T07:54:31.592Z,18.10
2023-05-23T07:58:52.346Z,18.20
2023-05-23T08:03:10.487Z,18.30
2023-05-23T08:07:42.485Z,18.30
2023-05-23T08:12:02.025Z,18.40
2023-05-23T08:16:23.386Z,18.40
2023-05-23T08:20:41.462Z,18.30
2023-05-23T08:25:04.077Z,18.30
2023-05-23T08:29:26.547Z,18.40
2023-05-23T08:33:44.766Z,18.60
2023-05-23T08:38:09.039Z,18.80
2023-05-23T08:42:31.796Z,18.90
2023-05-23T08:46:54.663Z,19.00
2023-05-23T08:51:39.060Z,19.00
2023-05-23T08:56:05.438Z,19.10
2023-05-23T09:00:38.664Z,19.20
2023-05-23T09:04:59.737Z,19.20
2023-05-23T09:09:20.002Z,19.30
2023-05-23T09:13:37.688Z,19.40
2023-05-23T09:18:03.392Z,19.60
2023-05-23T09:22:26.090Z,20.00
2023-05-23T09:26:53.270Z,20.40
2023-05-23T09:31:11.589Z,20.70
2023-05-23T09:35:31.653Z,20.80
2023-05-23T09:39:50.873Z,20.80
2023-05-23T09:44:10.469Z,20.60
2023-05-23T09:48:30.805Z,20.40
2023-05-23T09:52:54.408Z,20.20
2023-05-23T09:57:12.729Z,20.00
2023-05-23T10:01:33.398Z,19.80
2023-05-23T10:05:54.557Z,19.50
2023-05-23T10:10:15.165Z,19.30
2023-05-23T10:14:36.567Z,19.10
2023-05-23T10:18:58.622Z,18.90
2023-05-23T10:23:19.414Z,18.70
2023-05-23T10:27:39.110Z,18.50
2023-05-23T10:31:59.333Z,18.40
2023-05-23T10:36:27.177Z,18.30
2023-05-23T10:40:54.468Z,18.30
2023-05-23T10:45:19.250Z,18.20
2023-05-23T10:49:42.389Z,18.20
2023-05-23T10:54:02.178Z,18.20
2023-05-23T10:58:23.171Z,18.20
2023-05-23T11:02:54.482Z,18.20
2023-05-23T11:07:33.531Z,18.10
2023-05-23T11:12:02.809Z,18.00
2023-05-23T11:16:29.068Z,17.90
2023-05-23T11:20:54.309Z,17.80
2023-05-23T11:25:13.975Z,17.80
2023-05-23T11:29:34.721Z,17.90
2023-05-23T11:33:52.409Z,18.10
2023-05-23T11:38:16.879Z,18.30
2023-05-23T11:42:35.631Z,18.40
2023-05-23T11:47:02.925Z,18.50
2023-05-23T11:51:23.004Z,18.40
2023-05-23T11:55:49.336Z,18.20
2023-05-23T12:00:11.742Z,18.10
2023-05-23T12:04:32.448Z,17.90
2023-05-23T12:08:50.510Z,17.80
2023-05-23T12:13:10.425Z,17.70
2023-05-23T12:17:29.887Z,17.60
2023-05-23T12:21:48.806Z,17.50
2023-05-23T12:26:10.245Z,17.40
2023-05-23T12:30:41.874Z,17.30
2023-05-23T12:35:01.103Z,17.20
2023-05-23T12:39:27.635Z,17.00
2023-05-23T12:43:52.701Z,16.90
2023-05-23T12:48:11.647Z,16.90
2023-05-23T12:52:31.583Z,16.80
2023-05-23T12:56:49.060Z,16.80
2023-05-23T13:01:07.477Z,16.90
2023-05-23T13:05:27.667Z,16.90
2023-05-23T13:09:46.484Z,16.90
2023-05-23T13:14:04.548Z,16.90
2023-05-23T13:18:22.425Z,16.80
2023-05-23T13:22:41.795Z,16.70
2023-05-23T13:27:02.138Z,16.70
2023-05-23T13:31:19.837Z,16.60
2023-05-23T13:35:37.713Z,16.60
2023-05-23T13:39:57.195Z,16.60
2023-05-23T13:44:17.016Z,16.50
2023-05-23T13:48:38.047Z,16.50
2023-05-23T13:52:56.242Z,16.40
2023-05-23T13:57:15.733Z,16.30
2023-05-23T14:01:35.252Z,16.20
2023-05-23T14:05:53.499Z,16.20
2023-05-23T14:10:12.051Z,16.10
2023-05-23T14:14:34.101Z,16.00
2023-05-23T14:18:53.715Z,15.90
2023-05-23T14:23:11.755Z,15.90
2023-05-23T14:27:30.110Z,15.90
2023-05-23T14:31:49.937Z,15.80
2023-05-23T14:36:09.624Z,15.80
2023-05-23T14:40:27.081Z,15.80
2023-05-23T14:44:45.374Z,15.90
2023-05-23T14:49:04.471Z,15.90
2023-05-23T14:53:24.381Z,15.90
2023-05-23T14:57:42.366Z,15.80
2023-05-23T15:02:00.451Z,15.70
2023-05-23T15:06:20.095Z,15.60
2023-05-23T15:10:39.571Z,15.50
2023-05-23T15:15:03.360Z,15.40
2023-05-23T15:19:22.289Z,15.30
2023-05-23T15:23:41.720Z,15.20
2023-05-23T15:28:01.187Z,15.10
2023-05-23T15:32:19.609Z,15.00
2023-05-23T15:36:37.329Z,15.00
2023-05-23T15:40:59.328Z,14.90
2023-05-23T15:45:19.534Z,14.80
2023-05-23T15:49:37.778Z,14.70
2023-05-23T15:58:18.054Z,14.50
2023-05-23T16:02:37.825Z,14.40
2023-05-23T16:06:56.092Z,14.30
2023-05-23T16:11:14.347Z,14.20
2023-05-23T16:15:33.299Z,14.10
2023-05-23T16:19:53.149Z,14.00
2023-05-23T16:24:12.175Z,14.00
2023-05-23T16:28:32.596Z,13.90
2023-05-23T16:32:51.834Z,13.80
2023-05-23T16:37:11.594Z,13.70
2023-05-23T16:41:29.577Z,13.70
2023-05-23T16:45:47.638Z,13.70
2023-05-23T16:50:08.685Z,13.70
2023-05-23T16:54:27.379Z,13.60
2023-05-23T16:58:44.648Z,13.60
2023-05-23T17:03:03.362Z,13.60
2023-05-23T17:07:22.358Z,13.50
2023-05-23T17:11:42.180Z,13.50
2023-05-23T17:16:00.014Z,13.40
2023-05-23T17:20:18.530Z,13.50
2023-05-23T17:24:37.979Z,13.50
2023-05-23T17:28:57.225Z,13.50
2023-05-23T17:33:15.097Z,13.50
2023-05-23T17:37:36.141Z,13.50
2023-05-23T17:41:58.411Z,13.50
2023-05-23T17:46:18.390Z,13.50
2023-05-23T17:50:36.512Z,13.50
2023-05-23T17:54:54.482Z,13.50
2023-05-23T17:59:15.566Z,13.50
2023-05-23T18:03:33.636Z,13.50
2023-05-23T18:07:51.822Z,13.60
2023-05-23T18:12:11.556Z,13.60
2023-05-23T18:16:32.631Z,13.60
2023-05-23T18:20:52.174Z,13.60
2023-05-23T18:25:10.780Z,13.60
2023-05-23T18:29:28.339Z,13.70
2023-05-23T18:33:47.829Z,13.60
2023-05-23T18:38:07.538Z,13.70
2023-05-23T18:42:25.639Z,13.70
2023-05-23T18:46:43.602Z,13.70
2023-05-23T18:51:02.890Z,13.70
2023-05-23T18:55:22.795Z,13.70
2023-05-23T18:59:40.943Z,13.70
2023-05-23T19:03:58.797Z,13.70
2023-05-23T19:08:18.679Z,13.70
2023-05-23T19:12:39.382Z,13.70
2023-05-23T19:17:00.014Z,13.70
2023-05-23T19:21:17.080Z,13.70
2023-05-23T19:25:37.415Z,13.70
2023-05-23T19:29:56.620Z,13.70
2023-05-23T19:34:14.405Z,13.70
2023-05-23T19:38:32.554Z,13.70
2023-05-23T19:42:52.558Z,13.70
2023-05-23T19:47:11.589Z,13.70
2023-05-23T19:51:30.204Z,13.70
2023-05-23T19:55:47.755Z,13.60
2023-05-23T20:00:09.937Z,13.60
2023-05-23T20:04:30.485Z,13.60
2023-05-23T20:08:48.120Z,13.60
2023-05-23T20:13:06.931Z,13.50
2023-05-23T20:17:25.701Z,13.50
2023-05-23T20:21:45.522Z,13.40
2023-05-23T20:26:03.401Z,13.30
2023-05-23T20:30:22.114Z,13.20
2023-05-23T20:34:41.967Z,13.00
2023-05-23T20:39:00.729Z,12.80
2023-05-23T20:43:20.274Z,12.70
2023-05-23T20:47:41.432Z,12.50
2023-05-23T20:52:02.990Z,12.40
2023-05-23T20:56:22.589Z,12.20
2023-05-23T21:00:40.186Z,12.10
2023-05-23T21:04:58.157Z,12.00
2023-05-23T21:09:17.702Z,12.00
2023-05-23T21:13:39.652Z,11.90
2023-05-23T21:17:58.960Z,11.90
2023-05-23T21:22:16.764Z,11.90
2023-05-23T21:26:35.968Z,11.90
2023-05-23T21:30:55.763Z,11.90
2023-05-23T21:35:13.841Z,11.90
2023-05-23T21:39:46.860Z,11.90
2023-05-23T21:44:09.860Z,11.90
2023-05-23T21:48:29.396Z,11.80
2023-05-23T21:52:47.619Z,11.80
2023-05-23T21:57:07.310Z,11.80
2023-05-23T22:01:28.481Z,11.80
2023-05-23T22:05:48.002Z,11.80
2023-05-23T22:10:06.754Z,11.80
2023-05-23T22:14:24.048Z,11.80
2023-05-23T22:23:10.031Z,11.70
2023-05-23T22:27:27.337Z,11.70
2023-05-23T22:31:46.869Z,11.70
2023-05-23T22:36:09.500Z,11.70
2023-05-23T22:40:27.637Z,11.70
2023-05-23T22:44:45.814Z,11.80
2023-05-23T22:49:03.825Z,11.80
2023-05-23T22:53:23.772Z,11.80
2023-05-23T22:57:43.101Z,11.80
2023-05-23T23:02:01.105Z,11.70
2023-05-23T23:06:21.027Z,11.70
2023-05-23T23:10:43.757Z,11.70
2023-05-23T23:15:01.645Z,11.60
2023-05-23T23:19:19.315Z,11.60
2023-05-23T23:23:38.375Z,11.50
2023-05-23T23:28:00.005Z,11.40
2023-05-23T23:32:19.978Z,11.20
2023-05-23T23:36:39.768Z,11.00
2023-05-23T23:40:58.797Z,10.90
2023-05-23T23:45:18.330Z,10.80
2023-05-23T23:49:38.068Z,10.70
2023-05-23T23:53:56.475Z,10.60
2023-05-23T23:58:14.103Z,10.60
